Time;durP1;ratioP1;P1;durP2;ratioP2;P2;SDS_P1;SDS_P2;PMS_P1;PMS_P2;Temp;Humidity;BMP_temperature;BMP_pressure;BME280_temperature;BME280_humidity;BME280_pressure;Samples;Min_cycle;Max_cycle;Signal;HPM_P1;HPM_P2
2022/09/01 06:15:29;;;;;;;0.00;0.00;;;;;;;18.30;100.00;98467.94;4926892;27;20489;-72
2022/09/01 06:17:59;;;;;;;0.00;0.00;;;;;;;20.38;100.00;98464.25;5002089;28;20042;-81
2022/09/01 06:20:30;;;;;;;3.13;0.20;;;;;;;24.06;79.23;98447.47;5024034;28;20450;-80
2022/09/01 06:22:58;;;;;;;0.00;0.00;;;;;;;26.00;68.12;98436.06;4878848;28;20116;-74
2022/09/01 06:25:29;;;;;;;0.00;0.00;;;;;;;23.38;78.82;98457.81;4953087;28;20431;-82
2022/09/01 06:31:08;;;;;;;;;;;;;;;22.31;85.57;98465.91;4874230;27;19933;-68
2022/09/01 06:35:28;;;;;;;0.00;0.00;;;;;;;21.95;81.71;98472.44;4933269;27;20133;-67
2022/09/01 06:38:41;;;;;;;0.00;0.00;;;;;;;22.54;79.72;98472.41;5100135;27;20388;-71
2022/09/01 06:41:31;;;;;;;0.00;0.00;;;;;;;22.60;78.57;98471.72;4914862;27;20142;-76
2022/09/01 06:44:00;;;;;;;0.00;0.00;;;;;;;23.16;82.46;98474.59;4967258;28;20424;-81
2022/09/01 06:49:31;;;;;;;0.00;0.00;;;;;;;23.56;84.42;98470.03;5038115;27;20477;-79
2022/09/01 06:52:01;;;;;;;0.00;0.00;;;;;;;23.29;76.02;98478.44;4986437;28;20875;-72
2022/09/01 06:54:32;;;;;;;0.00;0.00;;;;;;;21.89;80.72;98479.25;4994214;28;20554;-81
2022/09/01 06:57:02;;;;;;;0.00;0.00;;;;;;;21.55;82.55;98489.06;4972002;28;20052;-83
2022/09/01 06:59:32;;;;;;;0.00;0.00;;;;;;;21.45;83.16;98479.41;4748235;28;197272;-81
2022/09/01 07:02:02;;;;;;;0.00;0.00;;;;;;;21.34;83.92;98482.34;5015280;28;20092;-86
2022/09/01 07:04:43;;;;;;;0.00;0.00;;;;;;;21.19;84.83;98487.41;5002072;28;20052;-84
2022/09/01 07:07:13;;;;;;;0.00;0.00;;;;;;;21.09;85.21;98480.44;5040408;28;20049;-84
2022/09/01 07:09:43;;;;;;;0.00;0.00;;;;;;;21.06;85.48;98488.78;5022671;28;20076;-86
2022/09/01 07:12:23;;;;;;;0.00;0.00;;;;;;;21.04;85.60;98496.09;5016838;28;20049;-85
2022/09/01 07:14:52;;;;;;;0.00;0.00;;;;;;;21.13;85.75;98501.38;4984739;28;20066;-85
2022/09/01 07:17:23;;;;;;;0.00;0.00;;;;;;;21.05;89.26;98492.44;5004606;28;20114;-80
2022/09/01 07:19:52;;;;;;;0.00;0.00;;;;;;;21.04;91.37;98505.00;5040574;28;20148;-83
2022/09/01 07:22:21;;;;;;;0.00;0.00;;;;;;;21.01;92.79;98491.91;5038697;28;20049;-88
2022/09/01 07:24:56;;;;;;;0.00;0.00;;;;;;;20.99;93.74;98493.88;5023712;28;20057;-82
2022/09/01 07:27:49;;;;;;;0.00;0.00;;;;;;;21.00;95.16;98490.25;5046819;28;20535;-86
2022/09/01 07:30:19;;;;;;;0.00;0.00;;;;;;;20.99;95.86;98493.88;5064871;28;20515;-87
2022/09/01 07:32:49;;;;;;;0.00;0.00;;;;;;;21.00;96.69;98492.06;5061042;28;20032;-88
2022/09/01 07:35:21;;;;;;;0.00;0.00;;;;;;;21.00;96.83;98495.59;5067752;28;20043;-88
2022/09/01 07:37:50;;;;;;;0.00;0.00;;;;;;;20.98;96.93;98497.56;5059631;28;20048;-87
2022/09/01 07:40:21;;;;;;;0.00;0.00;;;;;;;20.97;97.01;98501.22;5087298;28;20132;-88
2022/09/01 07:43:15;;;;;;;0.00;0.00;;;;;;;20.96;96.71;98496.03;5049638;28;20135;-89
2022/09/01 07:46:15;;;;;;;0.00;0.00;;;;;;;20.95;96.41;98500.53;5042128;28;20048;-88
2022/09/01 07:48:44;;;;;;;0.00;0.00;;;;;;;20.96;95.76;98499.56;5062254;28;20049;-87
2022/09/01 07:51:17;;;;;;;0.00;0.00;;;;;;;20.97;95.25;98498.56;5065775;28;20418;-88
2022/09/01 07:53:47;;;;;;;0.00;0.00;;;;;;;20.96;95.19;98506.72;5060735;28;20052;-87
2022/09/01 07:56:17;;;;;;;0.00;0.00;;;;;;;20.95;94.41;98497.03;5062097;28;20044;-87
2022/09/01 07:58:49;;;;;;;0.00;0.00;;;;;;;20.94;94.08;98501.53;5060473;28;20136;-86
2022/09/01 08:01:18;;;;;;;0.00;0.00;;;;;;;20.96;93.57;98499.56;5047955;28;20048;-88
2022/09/01 08:03:50;;;;;;;0.00;0.00;;;;;;;20.94;93.30;98503.34;5051723;28;20064;-87
2022/09/01 08:06:21;;;;;;;0.00;0.00;;;;;;;20.94;93.10;98506.03;5058016;28;20036;-85
2022/09/01 08:08:50;;;;;;;0.00;0.00;;;;;;;20.94;92.77;98506.03;5033669;28;20045;-87
2022/09/01 08:11:23;;;;;;;0.00;0.00;;;;;;;20.92;92.50;98510.72;5057719;28;20060;-85
2022/09/01 08:13:54;;;;;;;0.00;0.00;;;;;;;20.93;92.11;98507.03;5032492;28;20069;-87
2022/09/01 08:16:22;;;;;;;0.00;0.00;;;;;;;20.91;91.80;98503.66;5050359;28;20057;-85
2022/09/01 08:18:51;;;;;;;0.00;0.00;;;;;;;20.93;91.67;98507.88;5053578;28;20124;-87
2022/09/01 08:21:28;;;;;;;0.00;0.00;;;;;;;20.92;91.18;98505.34;5055872;28;20147;-81
2022/09/01 08:24:03;;;;;;;0.00;0.00;;;;;;;20.92;90.72;98506.19;5056283;28;20407;-82
2022/09/01 08:26:34;;;;;;;0.00;0.00;;;;;;;20.91;90.64;98511.69;5053191;28;20584;-84
2022/09/01 08:29:04;;;;;;;0.00;0.00;;;;;;;20.90;90.36;98513.50;5043667;28;20136;-83
2022/09/01 08:31:58;;;;;;;0.00;0.00;;;;;;;20.91;89.95;98507.19;5057294;28;20033;-83
2022/09/01 08:34:26;;;;;;;0.00;0.00;;;;;;;20.88;89.89;98507.44;5037190;28;20053;-83
2022/09/01 08:36:55;;;;;;;0.00;0.00;;;;;;;20.86;89.74;98511.28;5049245;28;20037;-83
2022/09/01 08:39:24;;;;;;;0.00;0.00;;;;;;;20.85;89.65;98510.44;5029969;28;20500;-86
2022/09/01 08:41:59;;;;;;;0.00;0.00;;;;;;;20.84;89.50;98506.06;5047444;28;20037;-86
2022/09/01 08:44:40;;;;;;;0.00;0.00;;;;;;;20.85;89.15;98501.56;5048795;28;20167;-87
2022/09/01 08:47:11;;;;;;;0.00;0.00;;;;;;;20.86;89.08;98509.44;5046298;28;20512;-78
2022/09/01 08:49:44;;;;;;;0.00;0.00;;;;;;;20.86;88.80;98503.25;5049499;28;20068;-83
2022/09/01 08:52:34;;;;;;;;;;;;;;;20.87;88.66;98507.59;5048097;28;20484;-81
2022/09/01 08:55:14;;;;;;;0.00;0.00;;;;;;;20.87;88.41;98499.56;5048678;28;19964;-86
2022/09/01 08:57:44;;;;;;;0.00;0.00;;;;;;;20.86;88.41;98505.91;5044954;28;20110;-85
2022/09/01 09:00:23;;;;;;;0.00;0.00;;;;;;;20.86;88.24;98498.75;5049237;28;20055;-83
2022/09/01 09:03:05;;;;;;;0.00;0.00;;;;;;;20.86;88.05;98501.41;5046905;28;20047;-82
2022/09/01 09:05:49;;;;;;;0.00;0.00;;;;;;;20.86;87.98;98501.41;5047430;28;20049;-81
2022/09/01 09:08:50;;;;;;;0.00;0.00;;;;;;;20.87;87.79;98507.59;5048579;28;20389;-84
2022/09/01 09:11:52;;;;;;;0.00;0.00;;;;;;;20.86;87.89;98508.59;5047754;28;20045;-83
2022/09/01 09:14:37;;;;;;;0.00;0.00;;;;;;;20.87;87.74;98502.25;5031040;28;20496;-82
2022/09/01 09:17:05;;;;;;;0.00;0.00;;;;;;;20.87;87.72;98510.25;5046456;28;20045;-81
2022/09/01 09:19:36;;;;;;;0.00;0.00;;;;;;;20.87;87.63;98505.78;5049670;28;20037;-82
2022/09/01 09:22:09;;;;;;;0.00;0.00;;;;;;;20.89;87.31;98508.28;5048333;28;20128;-84
2022/09/01 09:24:49;;;;;;;0.00;0.00;;;;;;;20.90;87.08;98508.16;5047993;28;20079;-84
2022/09/01 09:27:19;;;;;;;0.00;0.00;;;;;;;20.90;87.08;98510.81;5048258;28;20045;-85
2022/09/01 09:29:53;;;;;;;0.00;0.00;;;;;;;20.91;86.98;98512.53;5049693;28;20587;-85
2022/09/01 09:32:24;;;;;;;0.00;0.00;;;;;;;20.91;86.82;98504.50;5045396;28;20052;-85
2022/09/01 09:34:52;;;;;;;0.00;0.00;;;;;;;20.91;86.83;98500.97;5049449;28;20442;-84
2022/09/01 09:37:25;;;;;;;0.00;0.00;;;;;;;20.91;86.64;98506.31;5046697;28;20481;-79
2022/09/01 09:40:13;;;;;;;0.00;0.00;;;;;;;20.92;86.68;98497.34;5048119;28;20949;-84
2022/09/01 09:42:43;;;;;;;0.00;0.00;;;;;;;20.92;86.51;98502.69;5045344;28;20041;-80
2022/09/01 09:45:24;;;;;;;0.00;0.00;;;;;;;20.94;86.28;98496.19;5048845;28;20044;-83
2022/09/01 09:47:53;;;;;;;0.00;0.00;;;;;;;20.95;86.28;98502.38;5047130;28;20053;-84
2022/09/01 09:50:25;;;;;;;0.00;0.00;;;;;;;20.96;86.25;98498.72;5046200;28;20067;-85
2022/09/01 09:52:54;;;;;;;0.00;0.00;;;;;;;20.95;86.13;98497.84;5049282;28;20037;-84
2022/09/01 09:55:29;;;;;;;0.00;0.00;;;;;;;20.97;86.04;98505.72;5048886;28;20495;-84
2022/09/01 09:58:01;;;;;;;0.00;0.00;;;;;;;20.96;85.98;98501.38;5048145;28;20041;-85
2022/09/01 10:00:32;;;;;;;0.00;0.00;;;;;;;21.00;85.91;98495.59;5048869;28;20048;-84
2022/09/01 10:03:03;;;;;;;0.00;0.00;;;;;;;20.98;85.98;98494.88;5045071;28;20456;-81
2022/09/01 10:05:40;;;;;;;0.00;0.00;;;;;;;20.98;85.81;98494.03;5047178;28;20041;-83
2022/09/01 10:08:11;;;;;;;0.00;0.00;;;;;;;21.00;85.67;98494.72;5047435;28;20065;-83
2022/09/01 10:10:44;;;;;;;0.00;0.00;;;;;;;20.99;85.74;98493.06;5041267;28;20037;-83
2022/09/01 10:13:16;;;;;;;0.00;0.00;;;;;;;21.01;85.55;98496.41;5048838;28;20052;-84
2022/09/01 10:15:49;;;;;;;0.00;0.00;;;;;;;21.02;85.40;98496.25;5047600;28;20048;-84
2022/09/01 10:18:20;;;;;;;0.00;0.00;;;;;;;21.02;85.28;98490.91;5030240;28;20037;-83
2022/09/01 10:20:58;;;;;;;0.00;0.00;;;;;;;21.03;85.15;98497.09;5048335;28;20107;-83
2022/09/01 10:23:31;;;;;;;0.00;0.00;;;;;;;21.03;85.14;98491.75;5058006;28;20132;-83
2022/09/01 10:26:06;;;;;;;0.00;0.00;;;;;;;21.05;84.89;98498.63;5060414;28;20041;-84
2022/09/01 10:28:40;;;;;;;0.00;0.00;;;;;;;21.06;84.87;98488.78;5028733;28;20083;-85
2022/09/01 10:31:09;;;;;;;0.00;0.00;;;;;;;21.04;84.91;98499.63;5028103;28;20045;-83
2022/09/01 10:33:37;;;;;;;0.00;0.00;;;;;;;21.07;84.86;98498.47;5032741;28;20037;-84
2022/09/01 10:36:07;;;;;;;0.00;0.00;;;;;;;21.06;84.73;98492.28;5048959;28;20048;-83
2022/09/01 10:38:35;;;;;;;0.00;0.00;;;;;;;21.06;84.78;98497.63;5047344;28;20037;-83
2022/09/01 10:41:10;;;;;;;0.00;0.00;;;;;;;21.08;84.56;98490.31;5048726;28;20045;-83
2022/09/01 10:43:42;;;;;;;0.00;0.00;;;;;;;21.09;84.56;98491.97;5046085;28;20044;-81
2022/09/01 10:46:43;;;;;;;0.00;0.00;;;;;;;21.11;84.44;98497.19;5047996;28;20059;-82
2022/09/01 10:49:22;;;;;;;0.00;0.00;;;;;;;21.12;84.31;98485.47;5037338;28;20048;-82
2022/09/01 10:51:50;;;;;;;0.00;0.00;;;;;;;21.14;84.11;98491.53;5045898;28;20052;-82
2022/09/01 10:54:55;;;;;;;0.00;0.00;;;;;;;21.14;84.12;98488.84;5046007;28;20041;-80
2022/09/01 10:57:45;;;;;;;0.00;0.00;;;;;;;21.15;83.91;98480.69;5042349;28;20554;-82
2022/09/01 11:00:48;;;;;;;0.00;0.00;;;;;;;21.15;83.96;98487.84;5040164;28;20053;-82
2022/09/01 11:03:53;;;;;;;0.00;0.00;;;;;;;21.16;83.95;98481.50;5027074;28;20103;-82
2022/09/01 11:07:07;;;;;;;0.00;0.00;;;;;;;21.18;83.77;98482.19;5039900;28;20086;-83
2022/09/01 11:09:39;;;;;;;0.00;0.00;;;;;;;21.17;83.77;98486.69;5012317;28;20045;-82
2022/09/01 11:12:47;;;;;;;0.00;0.00;;;;;;;21.19;83.66;98486.53;5046821;28;20087;-81
2022/09/01 11:15:36;;;;;;;0.00;0.00;;;;;;;21.21;83.44;98480.03;4986026;28;20070;-83
2022/09/01 11:18:11;;;;;;;0.00;0.00;;;;;;;21.25;83.43;98477.91;4983491;28;20038;-82
2022/09/01 11:20:40;;;;;;;0.00;0.00;;;;;;;21.26;83.12;98485.78;4986917;28;20545;-83
2022/09/01 11:23:12;;;;;;;0.00;0.00;;;;;;;21.22;83.08;98478.22;4986720;28;20157;-83
2022/09/01 11:25:45;;;;;;;0.00;0.00;;;;;;;21.24;83.24;98478.88;4985859;28;20506;-83
2022/09/01 11:28:41;;;;;;;0.00;0.00;;;;;;;21.29;82.80;98472.06;4969849;28;20139;-82
2022/09/01 11:31:29;;;;;;;0.00;0.00;;;;;;;21.26;82.34;98487.63;4967213;28;20514;-82
2022/09/01 11:34:10;;;;;;;0.00;0.00;;;;;;;21.28;82.57;98482.97;4980427;28;20046;-81
2022/09/01 11:36:50;;;;;;;0.00;0.00;;;;;;;21.31;82.58;98477.28;4995597;28;20043;-81
2022/09/01 11:39:31;;;;;;;0.00;0.00;;;;;;;21.35;81.82;98479.50;4977491;28;20056;-81
2022/09/01 11:42:04;;;;;;;0.00;0.00;;;;;;;21.38;81.51;98473.00;4990854;28;20101;-81
2022/09/01 11:44:41;;;;;;;0.00;0.00;;;;;;;21.37;81.17;98471.31;4970249;28;20490;-82
2022/09/01 11:47:16;;;;;;;0.00;0.00;;;;;;;21.38;81.12;98467.63;4967078;28;20054;-83
2022/09/01 11:49:51;;;;;;;0.00;0.00;;;;;;;21.38;80.78;98473.00;4991136;28;20064;-83
2022/09/01 11:52:22;;;;;;;0.00;0.00;;;;;;;21.38;80.57;98468.50;5043806;28;20045;-83
2022/09/01 11:54:51;;;;;;;0.00;0.00;;;;;;;21.39;80.50;98461.31;5055931;28;20060;-83
2022/09/01 18:46:04;;;;;;;0.00;0.00;;;;;;;21.10;78.77;98524.94;5091363;27;20709;-71
2022/09/01 18:48:46;;;;;;;0.00;0.00;;;;;;;21.37;77.28;98524.84;5067969;28;20127;-71
2022/09/01 18:51:24;;;;;;;0.00;0.00;;;;;;;21.72;76.34;98528.38;5064829;28;20060;-71
2022/09/01 18:53:59;;;;;;;0.00;0.00;;;;;;;21.10;78.69;98543.69;5074952;28;20045;-75
2022/09/01 18:56:39;;;;;;;0.00;0.00;;;;;;;20.80;80.72;98546.66;5060787;28;20063;-78
2022/09/01 18:59:24;;;;;;;0.00;0.00;;;;;;;20.68;81.79;98546.88;5061298;28;20400;-79
2022/09/01 19:01:59;;;;;;;0.00;0.00;;;;;;;20.73;81.93;98554.41;5078569;28;20445;-79
2022/09/01 19:04:32;;;;;;;0.00;0.00;;;;;;;20.74;81.43;98553.44;5086040;28;20456;-83
2022/09/01 19:07:08;;;;;;;0.00;0.00;;;;;;;20.71;81.07;98554.56;5064309;28;20051;-83
2022/09/01 19:09:42;;;;;;;0.00;0.00;;;;;;;20.74;80.53;98559.63;5063430;28;20400;-83
2022/09/01 19:12:22;;;;;;;0.00;0.00;;;;;;;20.75;80.24;98563.97;5065344;28;20135;-83
2022/09/01 19:14:59;;;;;;;0.00;0.00;;;;;;;20.75;80.14;98558.63;5050539;28;20103;-83
2022/09/01 19:17:48;;;;;;;0.00;0.00;;;;;;;20.80;79.87;98562.72;5067916;28;20041;-83
2022/09/01 19:20:22;;;;;;;0.00;0.00;;;;;;;20.76;80.12;98572.84;5066508;28;20500;-82
2022/09/01 19:22:58;;;;;;;0.00;0.00;;;;;;;20.78;80.06;98570.03;5069378;28;20051;-82
2022/09/01 19:25:36;;;;;;;0.00;0.00;;;;;;;20.74;80.13;98564.97;5064972;28;20044;-83
2022/09/01 19:28:14;;;;;;;0.00;0.00;;;;;;;20.81;79.98;98572.41;5053157;28;20040;-83
2022/09/01 19:30:47;;;;;;;0.00;0.00;;;;;;;20.75;80.34;98572.00;5071776;28;20036;-82
2022/09/01 19:33:23;;;;;;;0.00;0.00;;;;;;;20.70;80.74;98574.28;5064851;28;20064;-82
2022/09/01 19:37:46;;;;;;;0.00;0.00;;;;;;;23.32;74.37;98557.84;5039844;27;20742;-75
2022/09/01 19:40:17;;;;;;;65.28;60.13;;;;;;;22.01;77.31;98558.38;4830184;28;20053;-76
2022/09/01 19:42:51;;;;;;;0.00;0.00;;;;;;;21.37;79.08;98563.19;5051109;28;20049;-78
2022/09/01 19:45:26;;;;;;;0.00;0.00;;;;;;;21.16;80.22;98575.16;5052813;28;20040;-77
2022/09/01 19:47:59;;;;;;;0.00;0.00;;;;;;;21.14;80.31;98577.16;5094934;28;20040;-77
2022/09/01 19:50:34;;;;;;;0.00;0.00;;;;;;;21.10;80.32;98581.13;5075913;28;20073;-76
2022/09/01 19:53:08;;;;;;;0.00;0.00;;;;;;;21.02;80.74;98578.38;5097975;28;20048;-78
2022/09/01 19:55:45;;;;;;;0.00;0.00;;;;;;;21.03;80.48;98580.06;5077162;28;20044;-78
2022/09/01 19:58:16;;;;;;;0.00;0.00;;;;;;;21.03;80.35;98569.34;5073384;28;20050;-77
2022/09/01 20:00:51;;;;;;;0.00;0.00;;;;;;;20.97;80.38;98568.13;5079794;28;20449;-77
2022/09/01 20:03:21;;;;;;;0.00;0.00;;;;;;;20.92;80.69;98572.25;5080385;28;20072;-77
2022/09/01 20:05:54;;;;;;;0.00;0.00;;;;;;;20.91;80.37;98566.03;5095796;28;20888;-77
2022/09/01 20:08:26;;;;;;;;;;;;;;;20.88;80.56;98566.28;5084817;28;20051;-77
2022/09/01 20:10:59;;;;;;;0.00;0.00;;;;;;;20.85;80.47;98566.63;5083878;28;19934;-77
2022/09/01 20:13:59;;;;;;;0.00;0.00;;;;;;;20.85;80.57;98569.28;5084256;28;20044;-76
2022/09/01 20:16:39;;;;;;;0.00;0.00;;;;;;;20.76;81.19;98583.53;5072013;28;20121;-77
2022/09/01 20:19:11;;;;;;;0.00;0.00;;;;;;;20.77;80.86;98573.69;5083440;28;20483;-77
2022/09/01 20:21:44;;;;;;;0.00;0.00;;;;;;;20.78;80.77;98577.03;5087239;28;20048;-77
2022/09/01 20:24:20;;;;;;;0.00;0.00;;;;;;;20.74;81.03;98580.19;5098970;28;20125;-77
2022/09/01 20:26:57;;;;;;;0.00;0.00;;;;;;;20.70;81.20;98579.63;5079453;28;20075;-77
2022/09/01 20:29:31;;;;;;;0.00;0.00;;;;;;;20.70;81.20;98579.63;5080471;28;20086;-77
2022/09/01 20:32:02;;;;;;;0.00;0.00;;;;;;;20.67;81.34;98577.25;5080328;28;20059;-77
2022/09/01 20:34:37;;;;;;;0.00;0.00;;;;;;;20.68;81.25;98573.59;5080378;28;20127;-77
2022/09/01 20:37:13;;;;;;;0.00;0.00;;;;;;;20.67;81.29;98582.59;5088675;28;20304;-77
2022/09/01 20:40:03;;;;;;;0.00;0.00;;;;;;;20.65;81.53;98578.38;5080315;28;20044;-77
2022/09/01 20:42:45;;;;;;;0.00;0.00;;;;;;;20.63;81.28;98578.53;5077949;28;20127;-77
2022/09/01 20:45:19;;;;;;;0.00;0.00;;;;;;;20.62;81.42;98581.34;5079800;28;20143;-77
2022/09/01 20:47:51;;;;;;;0.00;0.00;;;;;;;20.61;81.55;98585.03;5088161;28;20083;-77
2022/09/01 20:50:22;;;;;;;0.00;0.00;;;;;;;20.60;81.59;98581.50;5067100;28;20040;-76
2022/09/01 20:53:10;;;;;;;0.00;0.00;;;;;;;20.59;81.46;98581.66;5049890;28;20094;-77
2022/09/01 20:55:48;;;;;;;0.00;0.00;;;;;;;20.57;81.64;98576.47;5067591;28;20488;-77
2022/09/01 20:58:28;;;;;;;0.00;0.00;;;;;;;20.57;81.53;98572.94;5066391;28;20462;-76
2022/09/01 21:01:03;;;;;;;0.00;0.00;;;;;;;20.56;81.79;98579.28;5067693;28;20075;-76
2022/09/01 21:03:41;;;;;;;0.00;0.00;;;;;;;20.56;81.79;98581.97;5067190;28;20056;-77
2022/09/01 21:06:16;;;;;;;0.00;0.00;;;;;;;20.53;81.75;98582.25;5066450;28;20044;-76
2022/09/01 21:08:49;;;;;;;0.00;0.00;;;;;;;20.53;81.78;98577.72;5049840;28;20045;-76
2022/09/01 21:11:40;;;;;;;0.00;0.00;;;;;;;20.52;81.75;98577.91;5066630;28;20055;-77
2022/09/01 21:14:24;;;;;;;0.00;0.00;;;;;;;20.51;81.83;98584.22;5068552;28;20048;-76
2022/09/01 21:17:03;;;;;;;0.00;0.00;;;;;;;20.50;81.91;98587.88;5064916;28;20040;-75
2022/09/01 21:19:47;;;;;;;0.00;0.00;;;;;;;20.51;81.80;98582.41;5066697;28;20061;-75
2022/09/01 21:22:18;;;;;;;0.00;0.00;;;;;;;20.46;81.99;98590.03;5065260;28;20383;-76
2022/09/01 21:24:47;;;;;;;0.00;0.00;;;;;;;20.49;81.89;98586.22;5084207;28;20057;-76
2022/09/01 21:27:21;;;;;;;0.00;0.00;;;;;;;20.46;82.01;98591.84;5069169;28;20040;-76
2022/09/01 21:29:59;;;;;;;0.00;0.00;;;;;;;20.46;82.08;98589.16;5066439;28;20287;-76
2022/09/01 21:32:30;;;;;;;0.00;0.00;;;;;;;20.45;81.91;98593.66;5067333;28;20044;-76
2022/09/01 21:35:00;;;;;;;0.00;0.00;;;;;;;20.44;82.16;98599.16;5056676;28;20078;-76
2022/09/01 21:37:30;;;;;;;0.00;0.00;;;;;;;20.43;82.05;98598.34;5066830;28;20575;-76
2022/09/01 21:39:59;;;;;;;0.00;0.00;;;;;;;20.42;82.13;98593.94;5066717;28;20507;-76
2022/09/01 21:42:33;;;;;;;0.00;0.00;;;;;;;20.41;82.19;98591.44;5064555;28;20044;-76
2022/09/01 21:45:03;;;;;;;0.00;0.00;;;;;;;20.39;82.26;98596.94;5061426;28;20495;-75
2022/09/01 21:47:33;;;;;;;0.00;0.00;;;;;;;20.39;82.09;98594.28;5066314;28;20596;-76
2022/09/01 21:50:02;;;;;;;0.00;0.00;;;;;;;20.39;82.10;98583.56;5065282;28;20048;-76
2022/09/01 21:52:31;;;;;;;0.00;0.00;;;;;;;20.37;82.31;98585.53;5066658;28;20048;-76
2022/09/01 21:54:59;;;;;;;0.00;0.00;;;;;;;20.37;82.22;98585.53;5068126;28;20082;-77
2022/09/01 21:57:30;;;;;;;0.00;0.00;;;;;;;20.36;82.13;98575.00;5066072;28;20045;-77
2022/09/01 21:59:59;;;;;;;0.00;0.00;;;;;;;20.36;82.20;98583.00;5066019;28;20037;-77
2022/09/01 22:02:31;;;;;;;0.00;0.00;;;;;;;20.35;82.19;98574.16;5082872;28;20068;-77
2022/09/01 22:05:04;;;;;;;0.00;0.00;;;;;;;20.34;82.19;98577.81;5048618;28;20153;-77
2022/09/01 22:07:32;;;;;;;0.00;0.00;;;;;;;20.35;82.16;98573.31;5059583;28;20056;-77
2022/09/01 22:10:00;;;;;;;0.00;0.00;;;;;;;20.36;82.08;98575.00;5067563;28;20036;-77
2022/09/01 22:12:30;;;;;;;0.00;0.00;;;;;;;20.30;82.29;98571.06;5065740;28;20056;-77
2022/09/01 22:14:58;;;;;;;0.00;0.00;;;;;;;20.33;82.07;98576.13;5065170;28;20090;-77
2022/09/01 22:17:27;;;;;;;0.00;0.00;;;;;;;20.33;82.23;98578.81;5065142;28;20036;-77
2022/09/01 22:19:54;;;;;;;0.00;0.00;;;;;;;20.31;82.12;98577.28;5061861;28;20053;-78
2022/09/01 22:22:22;;;;;;;0.00;0.00;;;;;;;20.29;82.15;98577.41;5066268;28;20040;-77
2022/09/01 22:24:49;;;;;;;0.00;0.00;;;;;;;20.29;82.17;98577.41;5064697;28;20044;-77
2022/09/01 22:27:17;;;;;;;0.00;0.00;;;;;;;20.27;82.26;98582.03;5065465;28;20053;-77
2022/09/01 22:29:46;;;;;;;0.00;0.00;;;;;;;20.28;82.45;98572.22;5067717;28;20052;-78
2022/09/01 22:32:13;;;;;;;0.00;0.00;;;;;;;20.28;82.26;98583.75;5066506;28;20051;-76
2022/09/01 22:34:41;;;;;;;0.00;0.00;;;;;;;20.26;82.35;98575.03;5067699;28;20047;-78
2022/09/01 22:37:12;;;;;;;0.00;0.00;;;;;;;20.26;82.41;98572.34;5067962;28;20244;-76
2022/09/01 22:39:44;;;;;;;0.00;0.00;;;;;;;20.26;82.30;98567.00;5045019;28;20131;-77
2022/09/01 22:42:12;;;;;;;0.00;0.00;;;;;;;20.25;82.47;98572.50;5066814;28;20103;-77
2022/09/01 22:44:39;;;;;;;0.00;0.00;;;;;;;20.29;82.07;98574.75;5068068;28;20040;-77
2022/09/01 22:47:08;;;;;;;0.00;0.00;;;;;;;20.27;82.29;98576.69;5068140;28;20075;-77
2022/09/01 22:49:36;;;;;;;0.00;0.00;;;;;;;20.30;82.19;98580.94;5067922;28;20048;-77
2022/09/01 22:52:04;;;;;;;0.00;0.00;;;;;;;20.26;82.17;98575.03;5067024;28;20068;-77
2022/09/01 22:54:31;;;;;;;0.00;0.00;;;;;;;20.25;82.33;98569.81;5065304;28;20105;-77
2022/09/01 22:56:59;;;;;;;0.00;0.00;;;;;;;20.22;82.32;98568.28;5067561;28;20029;-77
2022/09/01 22:59:26;;;;;;;0.00;0.00;;;;;;;20.22;82.30;98570.97;5078638;28;20040;-77
2022/09/01 23:01:54;;;;;;;0.00;0.00;;;;;;;20.18;82.62;98572.25;5068161;28;20033;-77
2022/09/01 23:04:23;;;;;;;0.00;0.00;;;;;;;20.23;82.38;98569.97;5066973;28;20056;-77
2022/09/01 23:06:52;;;;;;;0.00;0.00;;;;;;;20.20;82.52;98572.09;5066528;28;20495;-77
2022/09/01 23:09:21;;;;;;;0.00;0.00;;;;;;;20.24;82.27;98568.16;5067794;28;20071;-77
2022/09/01 23:11:49;;;;;;;0.00;0.00;;;;;;;20.23;82.29;98569.16;5067486;28;20060;-77
2022/09/01 23:14:17;;;;;;;0.00;0.00;;;;;;;20.23;82.26;98569.97;5061179;28;20437;-77
2022/09/01 23:16:45;;;;;;;0.00;0.00;;;;;;;20.20;82.25;98567.63;5066157;28;20060;-77
2022/09/01 23:19:13;;;;;;;0.00;0.00;;;;;;;20.19;82.18;98567.75;5066414;28;20055;-77
2022/09/01 23:21:42;;;;;;;0.00;0.00;;;;;;;20.21;82.22;98561.28;5067496;28;20033;-77
2022/09/01 23:24:10;;;;;;;0.00;0.00;;;;;;;20.23;82.19;98564.63;5066248;28;20048;-76
2022/09/01 23:26:38;;;;;;;0.00;0.00;;;;;;;20.18;82.31;98561.56;5068010;28;20438;-76
2022/09/01 23:29:06;;;;;;;0.00;0.00;;;;;;;20.16;82.45;98558.13;5067321;28;20094;-77
2022/09/01 23:31:36;;;;;;;0.00;0.00;;;;;;;20.19;82.22;98567.75;5065227;28;20044;-77
2022/09/01 23:34:04;;;;;;;0.00;0.00;;;;;;;20.19;82.10;98557.88;5067970;28;20049;-76
2022/09/01 23:36:32;;;;;;;0.00;0.00;;;;;;;20.22;82.02;98564.75;5065750;28;20052;-77
2022/09/01 23:39:01;;;;;;;0.00;0.00;;;;;;;20.17;82.17;98562.56;5064665;28;20037;-77
2022/09/01 23:41:31;;;;;;;0.00;0.00;;;;;;;20.19;82.14;98562.41;5050183;28;20095;-77
2022/09/01 23:44:01;;;;;;;0.00;0.00;;;;;;;20.21;81.93;98563.09;5068267;28;20829;-76
2022/09/01 23:46:32;;;;;;;0.00;0.00;;;;;;;20.18;81.95;98560.69;5065787;28;20063;-76
2022/09/01 23:49:00;;;;;;;0.00;0.00;;;;;;;20.20;81.87;98564.09;5067824;28;20045;-77
2022/09/01 23:51:28;;;;;;;0.00;0.00;;;;;;;20.21;81.90;98563.94;5065584;28;20453;-76
2022/09/01 23:53:55;;;;;;;0.00;0.00;;;;;;;20.18;82.00;98564.22;5063977;28;20495;-76
2022/09/01 23:56:27;;;;;;;0.00;0.00;;;;;;;20.15;82.01;98556.47;5067751;28;20037;-76
2022/09/01 23:58:55;;;;;;;0.00;0.00;;;;;;;20.11;82.37;98555.06;5066882;28;20048;-76
